Time;durP1;ratioP1;P1;durP2;ratioP2;P2;SDS_P1;SDS_P2;PMS_P1;PMS_P2;Temp;Humidity;BMP_temperature;BMP_pressure;BME280_temperature;BME280_humidity;BME280_pressure;Samples;Min_cycle;Max_cycle;Signal;HPM_P1;HPM_P2
2023/04/03 00:01:07;;;;;;;4.37;1.50;;;25.80;99.90;;;;;;5092721;28;20266;-73
2023/04/03 00:03:35;;;;;;;6.73;1.50;;;26.00;99.90;;;;;;5092886;28;20167;-74
2023/04/03 00:06:03;;;;;;;6.67;1.63;;;26.00;99.90;;;;;;5094417;28;20645;-75
2023/04/03 00:08:32;;;;;;;5.63;1.30;;;25.80;99.90;;;;;;5101898;28;20217;-72
2023/04/03 00:11:00;;;;;;;5.43;1.40;;;25.40;99.90;;;;;;5095030;28;20186;-72
2023/04/03 00:13:27;;;;;;;8.37;1.40;;;25.20;99.90;;;;;;5092374;28;20267;-72
2023/04/03 00:15:55;;;;;;;4.53;1.37;;;24.70;99.90;;;;;;5110220;28;20570;-74
2023/04/03 00:18:23;;;;;;;7.47;1.10;;;24.20;99.90;;;;;;5112820;28;20183;-73
2023/04/03 00:20:50;;;;;;;6.23;1.07;;;25.00;99.90;;;;;;5110093;28;20190;-73
2023/04/03 00:23:18;;;;;;;9.13;1.50;;;25.00;99.90;;;;;;5092433;28;20266;-74
2023/04/03 00:25:45;;;;;;;5.27;1.40;;;25.00;99.90;;;;;;5092513;28;20515;-73
2023/04/03 00:28:12;;;;;;;5.00;1.10;;;25.00;99.90;;;;;;5092203;28;20220;-73
2023/04/03 00:30:40;;;;;;;2.87;1.20;;;25.10;99.90;;;;;;5090937;28;20599;-73
2023/04/03 00:33:07;;;;;;;4.87;1.20;;;25.20;99.90;;;;;;5092366;28;20174;-72
2023/04/03 00:35:35;;;;;;;4.13;1.13;;;24.80;99.90;;;;;;5091571;28;21278;-71
2023/04/03 00:38:03;;;;;;;4.57;1.50;;;24.70;99.90;;;;;;5097854;28;20182;-73
2023/04/03 00:40:36;;;;;;;4.60;1.17;;;24.80;99.90;;;;;;5111918;28;20643;-72
2023/04/03 00:43:13;;;;;;;3.03;1.00;;;24.50;99.90;;;;;;5112018;28;20276;-73
2023/04/03 00:45:44;;;;;;;5.70;1.10;;;24.10;99.90;;;;;;5110246;28;20269;-70
2023/04/03 00:48:20;;;;;;;3.33;1.00;;;23.80;99.90;;;;;;5099729;28;20239;-72
2023/04/03 00:50:48;;;;;;;3.60;1.27;;;23.50;99.90;;;;;;5090553;28;20548;-72
2023/04/03 00:53:23;;;;;;;4.33;1.10;;;23.20;99.90;;;;;;5091984;28;20179;-72
2023/04/03 00:55:52;;;;;;;5.93;1.10;;;23.00;99.90;;;;;;5091989;28;20175;-73
2023/04/03 00:58:22;;;;;;;5.87;1.13;;;22.90;99.90;;;;;;5091425;28;20539;-72
2023/04/03 01:00:57;;;;;;;5.13;1.47;;;22.90;99.90;;;;;;5092717;28;20179;-74
2023/04/03 01:03:25;;;;;;;4.60;1.10;;;22.80;99.90;;;;;;5099119;28;20315;-73
2023/04/03 01:05:52;;;;;;;5.43;1.20;;;22.70;99.90;;;;;;5096880;28;20190;-73
2023/04/03 01:08:20;;;;;;;7.57;1.83;;;22.80;99.90;;;;;;5106320;28;20271;-72
2023/04/03 01:10:47;;;;;;;7.17;1.37;;;23.10;99.90;;;;;;5109854;28;20188;-73
2023/04/03 01:13:33;;;;;;;2.23;1.20;;;23.20;99.90;;;;;;5110917;28;20273;-72
2023/04/03 01:16:06;;;;;;;5.53;1.67;;;23.50;99.90;;;;;;5102747;28;20230;-72
2023/04/03 01:18:36;;;;;;;7.30;1.00;;;24.10;99.90;;;;;;5103191;28;20236;-72
2023/04/03 01:21:18;;;;;;;5.50;1.33;;;25.10;99.90;;;;;;5111052;28;20182;-72
2023/04/03 01:24:00;;;;;;;5.30;1.10;;;26.00;99.90;;;;;;5101152;28;20191;-72
2023/04/03 01:26:29;;;;;;;3.50;1.30;;;25.60;99.90;;;;;;5090457;28;20722;-72
2023/04/03 01:28:59;;;;;;;3.17;1.17;;;26.30;99.90;;;;;;5091188;28;20287;-73
2023/04/03 01:31:32;;;;;;;2.93;1.00;;;27.20;99.90;;;;;;5094480;28;20669;-71
2023/04/03 01:33:59;;;;;;;3.63;0.97;;;28.20;99.90;;;;;;5111785;28;20202;-74
2023/04/03 01:36:29;;;;;;;5.57;0.97;;;28.50;99.90;;;;;;5110185;28;20568;-73
2023/04/03 01:38:59;;;;;;;2.93;0.87;;;29.00;99.90;;;;;;5110094;28;20186;-72
2023/04/03 01:41:27;;;;;;;2.40;0.77;;;29.70;99.90;;;;;;5111614;28;20262;-72
2023/04/03 01:43:54;;;;;;;2.25;0.85;;;30.40;99.90;;;;;;5111765;28;20231;-73
2023/04/03 01:46:22;;;;;;;4.20;1.10;;;30.80;99.90;;;;;;5111827;28;20351;-72
2023/04/03 01:48:50;;;;;;;2.47;0.68;;;30.60;99.90;;;;;;5110756;28;20191;-72
2023/04/03 01:51:17;;;;;;;3.92;1.10;;;30.60;99.90;;;;;;5112997;28;20175;-74
2023/04/03 01:53:45;;;;;;;4.47;1.05;;;30.30;99.90;;;;;;5115788;28;20188;-72
2023/04/03 01:56:12;;;;;;;2.10;0.85;;;30.70;99.90;;;;;;5115519;28;20166;-71
2023/04/03 01:58:40;;;;;;;4.03;1.00;;;30.00;99.90;;;;;;5114712;28;20190;-73
2023/04/03 02:01:07;;;;;;;5.23;1.53;;;29.30;99.90;;;;;;5115709;28;20170;-73
2023/04/03 02:03:35;;;;;;;3.57;0.90;;;28.20;99.90;;;;;;5115582;28;20601;-73
2023/04/03 02:06:03;;;;;;;4.43;1.43;;;28.60;99.90;;;;;;5114908;28;20179;-73
2023/04/03 02:08:30;;;;;;;2.83;0.75;;;29.60;99.90;;;;;;5107021;28;20259;-73
2023/04/03 02:10:58;;;;;;;3.78;1.10;;;30.00;99.90;;;;;;5094941;28;20258;-72
2023/04/03 02:13:25;;;;;;;6.22;1.40;;;30.20;99.90;;;;;;5094755;28;20175;-72
2023/04/03 02:15:52;;;;;;;2.37;1.27;;;30.30;99.90;;;;;;5094615;28;20234;-74
2023/04/03 02:18:20;;;;;;;3.60;1.00;;;29.50;99.90;;;;;;5100514;28;20181;-74
2023/04/03 02:20:48;;;;;;;7.13;0.97;;;29.30;99.90;;;;;;5113455;28;20183;-73
2023/04/03 02:23:15;;;;;;;3.80;1.20;;;29.10;99.90;;;;;;5094936;28;20764;-75
2023/04/03 02:25:43;;;;;;;4.00;1.10;;;29.30;99.90;;;;;;5094688;28;20653;-73
2023/04/03 02:28:10;;;;;;;1.88;0.70;;;30.00;99.90;;;;;;5111958;28;20221;-72
2023/04/03 02:30:38;;;;;;;6.35;1.00;;;30.20;99.90;;;;;;5106206;27;20176;-73
2023/04/03 02:33:05;;;;;;;2.83;1.00;;;30.70;99.90;;;;;;5094580;28;20665;-73
2023/04/03 02:35:33;;;;;;;6.47;1.17;;;30.10;99.90;;;;;;5095899;28;20662;-72
2023/04/03 02:38:00;;;;;;;5.17;1.07;;;30.10;99.90;;;;;;5114619;28;20183;-73
2023/04/03 02:40:28;;;;;;;6.57;1.43;;;29.80;99.90;;;;;;5114868;28;20178;-73
2023/04/03 02:42:56;;;;;;;3.93;0.90;;;29.70;99.90;;;;;;5114415;28;20620;-72
2023/04/03 02:45:24;;;;;;;6.47;1.20;;;28.90;99.90;;;;;;5114814;28;20185;-73
2023/04/03 02:47:52;;;;;;;6.43;1.37;;;28.10;99.90;;;;;;5114479;28;20214;-72
2023/04/03 02:50:19;;;;;;;4.47;0.90;;;27.70;99.90;;;;;;5114021;28;20189;-72
2023/04/03 02:52:47;;;;;;;3.80;1.07;;;27.50;99.90;;;;;;5114603;28;20220;-73
2023/04/03 02:55:16;;;;;;;2.53;0.80;;;27.80;99.90;;;;;;5114528;28;20249;-73
2023/04/03 02:57:44;;;;;;;4.57;1.00;;;27.60;99.90;;;;;;5109619;28;20198;-72
2023/04/03 03:00:12;;;;;;;4.20;0.93;;;27.20;99.90;;;;;;5094079;28;20176;-72
2023/04/03 03:02:40;;;;;;;3.67;0.97;;;26.80;99.90;;;;;;5093410;28;20276;-73
2023/04/03 03:05:08;;;;;;;4.13;1.20;;;26.60;99.90;;;;;;5093541;28;20262;-74
2023/04/03 03:07:36;;;;;;;9.70;1.33;;;26.10;99.90;;;;;;5093711;28;20207;-73
2023/04/03 03:10:04;;;;;;;4.97;1.00;;;25.60;99.90;;;;;;5094005;28;20179;-74
2023/04/03 03:12:32;;;;;;;4.57;1.23;;;25.10;99.90;;;;;;5093316;28;20187;-71
2023/04/03 03:14:59;;;;;;;7.57;1.30;;;24.90;99.90;;;;;;5094006;28;20178;-75
2023/04/03 03:17:27;;;;;;;2.33;0.60;;;24.70;99.90;;;;;;5093466;28;20207;-73
2023/04/03 03:19:55;;;;;;;2.70;0.93;;;24.60;99.90;;;;;;5092950;28;20179;-72
2023/04/03 03:22:23;;;;;;;16.13;1.90;;;25.10;99.90;;;;;;5113136;28;20186;-73
2023/04/03 03:24:51;;;;;;;4.33;1.07;;;26.10;99.90;;;;;;5098831;28;20216;-72
2023/04/03 03:27:18;;;;;;;2.87;0.80;;;26.50;99.90;;;;;;5091620;28;20685;-73
2023/04/03 03:29:46;;;;;;;2.40;0.80;;;26.60;99.90;;;;;;5112518;28;20213;-72
2023/04/03 03:32:14;;;;;;;3.70;0.80;;;27.00;99.90;;;;;;5113417;28;20187;-73
2023/04/03 03:34:42;;;;;;;6.73;1.33;;;27.60;99.90;;;;;;5113228;28;20231;-73
2023/04/03 03:37:09;;;;;;;3.50;1.10;;;28.00;99.90;;;;;;5113597;28;20171;-73
2023/04/03 03:39:37;;;;;;;1.43;0.60;;;28.20;99.90;;;;;;5113810;28;20170;-71
2023/04/03 03:42:05;;;;;;;2.50;0.87;;;27.90;99.90;;;;;;5096361;28;20183;-70
2023/04/03 03:44:33;;;;;;;8.90;1.33;;;27.40;99.90;;;;;;5093159;28;20182;-73
2023/04/03 03:47:01;;;;;;;5.40;1.13;;;27.10;99.90;;;;;;5092849;28;20260;-72
2023/04/03 03:49:28;;;;;;;5.33;1.23;;;26.50;99.90;;;;;;5107335;28;20186;-72
2023/04/03 03:51:56;;;;;;;4.77;1.00;;;26.10;99.90;;;;;;5113883;28;20201;-72
2023/04/03 03:54:24;;;;;;;6.17;1.50;;;26.00;99.90;;;;;;5113420;28;20211;-73
2023/04/03 03:56:51;;;;;;;4.40;1.10;;;25.50;99.90;;;;;;5113022;28;20649;-72
2023/04/03 03:59:19;;;;;;;7.27;1.33;;;25.20;99.90;;;;;;5112529;28;20179;-72
2023/04/03 04:01:47;;;;;;;3.93;1.03;;;24.90;99.90;;;;;;5112709;28;20194;-72
2023/04/03 04:04:15;;;;;;;5.60;1.27;;;24.60;99.90;;;;;;5112876;28;20182;-72
2023/04/03 04:06:43;;;;;;;4.97;1.10;;;24.60;99.90;;;;;;5104242;28;20233;-72
2023/04/03 04:09:11;;;;;;;3.70;1.13;;;24.70;99.90;;;;;;5092821;28;20602;-72
2023/04/03 04:11:40;;;;;;;5.70;1.17;;;24.60;99.90;;;;;;5092327;28;20566;-72
2023/04/03 04:14:10;;;;;;;13.20;1.77;;;24.50;99.90;;;;;;5091751;28;20207;-72
2023/04/03 04:16:37;;;;;;;11.03;1.83;;;24.40;99.90;;;;;;5092696;28;20222;-71
2023/04/03 04:19:09;;;;;;;6.97;1.57;;;24.30;99.90;;;;;;5101684;28;20248;-71
2023/04/03 04:21:37;;;;;;;6.23;1.20;;;24.20;99.90;;;;;;5092646;28;20340;-71
2023/04/03 04:24:06;;;;;;;7.90;1.50;;;24.20;99.90;;;;;;5092422;28;20561;-73
2023/04/03 04:26:34;;;;;;;3.63;1.40;;;24.00;99.90;;;;;;5091895;28;20210;-72
2023/04/03 04:29:02;;;;;;;8.83;1.83;;;23.80;99.90;;;;;;5092325;28;20197;-72
2023/04/03 04:31:30;;;;;;;9.57;1.63;;;23.50;99.90;;;;;;5092454;28;20282;-72
2023/04/03 04:33:57;;;;;;;9.63;1.90;;;22.80;99.90;;;;;;5091803;28;20174;-72
2023/04/03 04:36:25;;;;;;;8.20;1.70;;;22.50;99.90;;;;;;5092247;28;20736;-72
2023/04/03 04:38:53;;;;;;;10.60;1.50;;;22.30;99.90;;;;;;5091886;28;20179;-71
2023/04/03 04:41:25;;;;;;;5.77;1.30;;;22.10;99.90;;;;;;5110360;28;20238;-71
2023/04/03 04:43:53;;;;;;;9.53;1.77;;;22.10;99.90;;;;;;5112457;28;20175;-68
2023/04/03 04:46:21;;;;;;;10.30;2.27;;;22.20;99.90;;;;;;5110535;28;20221;-70
2023/04/03 04:48:48;;;;;;;9.17;1.60;;;22.20;99.90;;;;;;5112053;28;20182;-71
2023/04/03 04:51:16;;;;;;;9.17;1.87;;;22.20;99.90;;;;;;5099321;28;20185;-69
2023/04/03 04:53:44;;;;;;;10.17;2.10;;;22.10;99.90;;;;;;5091865;28;20179;-71
2023/04/03 04:56:12;;;;;;;9.53;2.33;;;21.80;99.90;;;;;;5096760;28;20178;-71
2023/04/03 04:58:40;;;;;;;6.13;1.40;;;21.80;99.90;;;;;;5112182;28;20208;-70
2023/04/03 05:01:10;;;;;;;9.77;1.90;;;21.70;99.90;;;;;;5100772;28;20180;-68
2023/04/03 05:03:38;;;;;;;10.17;2.33;;;21.80;99.90;;;;;;5091582;28;20182;-68
2023/04/03 05:06:06;;;;;;;5.67;1.30;;;21.90;99.90;;;;;;5091836;28;20189;-68
2023/04/03 05:08:34;;;;;;;10.50;1.73;;;22.00;99.90;;;;;;5091733;28;20348;-69
2023/04/03 05:11:02;;;;;;;11.90;1.67;;;22.00;99.90;;;;;;5091538;28;20183;-68
2023/04/03 05:13:29;;;;;;;7.20;1.53;;;21.90;99.90;;;;;;5091796;28;20179;-67
2023/04/03 05:15:57;;;;;;;7.93;1.63;;;21.90;99.90;;;;;;5091409;28;20451;-69
2023/04/03 05:18:25;;;;;;;8.67;2.63;;;21.90;99.90;;;;;;5091210;28;20216;-68
2023/04/03 05:20:52;;;;;;;9.50;1.97;;;22.00;99.90;;;;;;5091572;28;20191;-68
2023/04/03 05:23:20;;;;;;;7.73;2.30;;;22.10;99.90;;;;;;5091827;28;20258;-70
2023/04/03 05:25:48;;;;;;;7.30;1.50;;;22.20;99.90;;;;;;5093687;28;20204;-68
2023/04/03 05:28:16;;;;;;;9.13;2.03;;;22.20;99.90;;;;;;5095778;28;20210;-67
2023/04/03 05:30:43;;;;;;;8.60;2.77;;;22.30;99.90;;;;;;5108769;28;20661;-71
2023/04/03 05:33:10;;;;;;;8.47;2.07;;;22.60;99.90;;;;;;5102490;28;20185;-69
2023/04/03 05:35:43;;;;;;;6.23;1.80;;;22.80;99.90;;;;;;5109893;28;20545;-68
2023/04/03 05:38:11;;;;;;;4.00;1.60;;;23.00;99.90;;;;;;5108955;28;20273;-69
2023/04/03 05:40:38;;;;;;;8.20;1.70;;;23.20;99.90;;;;;;5115785;28;20589;-71
2023/04/03 05:43:06;;;;;;;6.90;1.67;;;23.30;99.90;;;;;;5098773;28;20725;-70
2023/04/03 05:45:33;;;;;;;9.60;1.60;;;23.50;99.90;;;;;;5095382;28;20176;-70
2023/04/03 05:48:00;;;;;;;5.20;1.70;;;23.50;99.90;;;;;;5095033;28;20210;-68
2023/04/03 05:50:30;;;;;;;5.53;1.30;;;23.50;99.90;;;;;;5095367;28;20175;-70
2023/04/03 05:52:59;;;;;;;4.83;1.33;;;23.20;99.90;;;;;;5095366;28;20277;-68
2023/04/03 05:55:26;;;;;;;9.70;1.53;;;23.20;99.90;;;;;;5095073;28;20270;-68
2023/04/03 05:57:54;;;;;;;7.30;1.47;;;23.10;99.90;;;;;;5095359;28;20175;-70
2023/04/03 06:00:22;;;;;;;5.80;1.23;;;22.90;99.90;;;;;;5095252;28;20209;-69
2023/04/03 06:02:50;;;;;;;4.57;1.70;;;22.90;99.90;;;;;;5095205;28;20186;-68
2023/04/03 06:05:17;;;;;;;4.37;1.13;;;23.00;99.90;;;;;;5095793;28;20190;-70
2023/04/03 06:07:45;;;;;;;8.37;1.77;;;22.90;99.90;;;;;;5094984;28;20222;-68
2023/04/03 06:10:13;;;;;;;10.00;1.80;;;23.00;99.90;;;;;;5100409;28;20175;-71
2023/04/03 06:12:41;;;;;;;6.60;1.90;;;22.90;99.90;;;;;;5099691;28;20179;-70
2023/04/03 06:15:10;;;;;;;9.47;1.57;;;22.90;99.90;;;;;;5094574;28;20193;-68
2023/04/03 06:17:37;;;;;;;7.63;1.30;;;22.80;99.90;;;;;;5106257;28;20189;-70
2023/04/03 06:20:06;;;;;;;8.87;1.53;;;22.80;99.90;;;;;;5102234;28;20175;-70
2023/04/03 06:22:33;;;;;;;5.10;1.20;;;22.60;99.90;;;;;;5095169;28;20175;-69
2023/04/03 06:25:00;;;;;;;7.07;1.10;;;22.50;99.90;;;;;;5094681;28;20175;-67
2023/04/03 06:27:28;;;;;;;12.00;2.27;;;22.40;99.90;;;;;;5094708;28;20250;-72
2023/04/03 06:29:56;;;;;;;7.03;1.43;;;22.30;99.90;;;;;;5094994;28;20207;-72
2023/04/03 06:32:23;;;;;;;10.43;1.60;;;22.30;99.90;;;;;;5095298;28;20225;-72
2023/04/03 06:34:51;;;;;;;5.43;1.53;;;22.20;99.90;;;;;;5102228;28;20179;-70
2023/04/03 06:37:21;;;;;;;9.33;1.80;;;22.20;99.90;;;;;;5093427;28;20230;-75
2023/04/03 06:39:49;;;;;;;8.57;1.63;;;22.10;99.90;;;;;;5094342;28;20650;-71
2023/04/03 06:42:16;;;;;;;7.70;1.53;;;22.00;99.90;;;;;;5094542;28;20186;-73
2023/04/03 06:44:44;;;;;;;8.53;1.73;;;21.90;99.90;;;;;;5094590;28;20221;-74
2023/04/03 06:47:14;;;;;;;7.63;2.07;;;21.80;99.90;;;;;;5094060;28;20207;-71
2023/04/03 06:49:42;;;;;;;8.17;1.70;;;21.90;99.90;;;;;;5093205;28;20178;-73
2023/04/03 06:52:12;;;;;;;9.67;1.43;;;21.80;99.90;;;;;;5094154;28;20318;-70
2023/04/03 06:54:41;;;;;;;5.30;1.13;;;21.80;99.90;;;;;;5094090;28;20253;-74
2023/04/03 06:57:08;;;;;;;9.50;1.20;;;21.80;99.90;;;;;;5094137;28;20171;-73
2023/04/03 06:59:36;;;;;;;7.87;1.40;;;21.60;99.90;;;;;;5094063;28;20170;-70
2023/04/03 07:02:04;;;;;;;9.10;1.70;;;21.60;99.90;;;;;;5094035;28;20653;-71
2023/04/03 07:04:31;;;;;;;14.87;1.90;;;21.60;99.90;;;;;;5094149;28;20215;-70
2023/04/03 07:06:59;;;;;;;10.13;2.00;;;21.60;99.90;;;;;;5093767;28;20285;-74
2023/04/03 07:09:33;;;;;;;8.63;2.13;;;21.70;99.90;;;;;;5094064;28;20175;-70
2023/04/03 07:12:00;;;;;;;9.03;1.80;;;21.60;99.90;;;;;;5094079;28;20186;-69
2023/04/03 07:14:28;;;;;;;7.37;1.60;;;21.50;99.90;;;;;;5093704;28;20194;-73
2023/04/03 07:16:55;;;;;;;10.13;2.30;;;21.50;99.90;;;;;;5093715;28;20223;-74
2023/04/03 07:19:24;;;;;;;8.17;1.70;;;21.50;99.90;;;;;;5093851;28;20202;-69
2023/04/03 07:21:51;;;;;;;7.47;1.67;;;21.50;99.90;;;;;;5093476;28;20183;-73
2023/04/03 07:24:18;;;;;;;8.27;2.10;;;21.40;99.90;;;;;;5093632;28;20658;-73
2023/04/03 07:26:49;;;;;;;13.43;1.80;;;21.40;99.90;;;;;;5093705;28;20287;-72
2023/04/03 07:29:16;;;;;;;14.77;1.83;;;21.40;99.90;;;;;;5093107;28;20183;-69
2023/04/03 07:31:45;;;;;;;8.60;1.63;;;21.40;99.90;;;;;;5092273;28;20599;-73
2023/04/03 07:34:12;;;;;;;10.63;2.00;;;21.30;99.90;;;;;;5093521;28;20584;-73
2023/04/03 07:36:40;;;;;;;10.10;2.13;;;21.30;99.90;;;;;;5093340;28;20185;-73
2023/04/03 07:39:08;;;;;;;8.37;2.07;;;21.20;99.90;;;;;;5092020;28;20523;-71
2023/04/03 07:41:35;;;;;;;9.23;1.73;;;21.10;99.90;;;;;;5093343;28;20253;-74
2023/04/03 07:44:02;;;;;;;8.93;1.87;;;21.00;99.90;;;;;;5093088;28;20215;-73
2023/04/03 07:46:30;;;;;;;13.70;1.80;;;21.00;99.90;;;;;;5093124;28;20175;-73
2023/04/03 07:48:57;;;;;;;6.87;1.60;;;21.10;99.90;;;;;;5093205;28;20174;-72
2023/04/03 07:51:25;;;;;;;10.37;1.63;;;21.20;99.90;;;;;;5092995;28;20179;-72
2023/04/03 07:53:53;;;;;;;6.23;1.37;;;21.20;99.90;;;;;;5093341;28;20167;-70
2023/04/03 07:56:20;;;;;;;7.40;1.73;;;21.20;99.90;;;;;;5099636;28;20175;-73
2023/04/03 07:58:48;;;;;;;8.20;2.07;;;21.20;99.90;;;;;;5098656;28;20187;-72
2023/04/03 08:01:16;;;;;;;8.53;1.63;;;21.10;99.90;;;;;;5096071;28;20171;-72
2023/04/03 08:03:44;;;;;;;5.63;1.60;;;21.00;99.90;;;;;;5104810;28;20253;-72
2023/04/03 08:06:12;;;;;;;8.13;1.57;;;21.00;99.90;;;;;;5113868;28;20310;-72
2023/04/03 08:08:40;;;;;;;8.50;1.33;;;20.90;99.90;;;;;;5092638;28;20247;-72
2023/04/03 08:11:08;;;;;;;3.53;1.40;;;20.90;99.90;;;;;;5111596;28;20186;-73
2023/04/03 08:13:35;;;;;;;9.23;1.50;;;20.90;99.90;;;;;;5113162;28;20182;-74
2023/04/03 08:16:17;;;;;;;8.50;2.30;;;20.90;99.90;;;;;;5112478;28;20221;-76
2023/04/03 08:18:45;;;;;;;5.50;1.50;;;20.80;99.90;;;;;;5113293;28;20191;-72
2023/04/03 08:21:13;;;;;;;10.47;1.60;;;20.80;99.90;;;;;;5112807;28;20175;-71
2023/04/03 08:23:41;;;;;;;5.80;1.90;;;20.80;99.90;;;;;;5113269;28;20649;-71
2023/04/03 08:26:14;;;;;;;7.13;1.50;;;20.80;99.90;;;;;;5112989;28;20182;-73
2023/04/03 08:28:42;;;;;;;6.23;1.17;;;20.70;99.90;;;;;;5111446;28;20323;-73
2023/04/03 08:31:13;;;;;;;7.63;1.80;;;20.70;99.90;;;;;;5113086;28;20169;-73
2023/04/03 08:33:41;;;;;;;10.70;1.37;;;20.70;99.90;;;;;;5113023;28;20511;-73
2023/04/03 08:36:19;;;;;;;11.33;1.70;;;20.60;99.90;;;;;;5111139;28;20592;-73
2023/04/03 08:38:47;;;;;;;4.93;1.50;;;20.50;99.90;;;;;;5112723;28;20182;-73
2023/04/03 08:41:34;;;;;;;9.33;1.67;;;20.40;99.90;;;;;;5112932;28;20664;-75
2023/04/03 08:44:05;;;;;;;8.50;1.50;;;20.20;99.90;;;;;;5110826;28;20676;-74
2023/04/03 08:46:53;;;;;;;4.20;1.23;;;20.20;99.90;;;;;;5111238;28;20551;-72
2023/04/03 08:49:34;;;;;;;9.37;2.23;;;20.20;99.90;;;;;;5112709;28;20631;-73
2023/04/03 08:52:14;;;;;;;7.40;1.67;;;20.00;99.90;;;;;;5112082;28;20174;-72
2023/04/03 08:54:57;;;;;;;4.13;1.40;;;20.00;99.90;;;;;;5112544;28;20178;-71
2023/04/03 08:57:42;;;;;;;5.30;1.50;;;19.80;99.90;;;;;;5094617;28;20186;-73
2023/04/03 09:00:23;;;;;;;6.00;1.57;;;19.70;99.90;;;;;;5091244;28;20579;-72
2023/04/03 09:02:53;;;;;;;9.17;1.63;;;19.70;99.90;;;;;;5092046;28;20202;-72
2023/04/03 09:05:43;;;;;;;5.57;1.57;;;19.60;99.90;;;;;;5092141;28;20253;-72
2023/04/03 09:08:13;;;;;;;6.80;1.70;;;19.50;99.90;;;;;;5091778;28;20217;-71
2023/04/03 09:10:42;;;;;;;5.20;1.47;;;19.50;99.90;;;;;;5092008;28;20262;-72
2023/04/03 09:13:54;;;;;;;7.60;1.90;;;19.50;99.90;;;;;;5091491;28;20585;-73
2023/04/03 09:16:48;;;;;;;4.13;1.53;;;19.50;99.90;;;;;;5029200;28;20278;-72
2023/04/03 09:19:21;;;;;;;7.00;2.07;;;19.60;99.90;;;;;;5091890;28;20179;-71
2023/04/03 09:21:49;;;;;;;8.70;1.97;;;19.50;99.90;;;;;;5091501;28;20178;-72
2023/04/03 09:24:18;;;;;;;9.30;2.60;;;19.50;99.90;;;;;;5091798;28;20591;-73
2023/04/03 09:27:04;;;;;;;4.23;1.53;;;19.30;99.90;;;;;;5091765;28;20298;-71
2023/04/03 09:29:32;;;;;;;5.37;1.70;;;19.30;99.90;;;;;;5091496;28;20570;-71
2023/04/03 09:32:10;;;;;;;11.07;2.23;;;19.20;99.90;;;;;;5091702;28;20190;-70
2023/04/03 09:34:41;;;;;;;5.73;1.67;;;19.10;99.90;;;;;;5091750;28;20171;-72
2023/04/03 09:37:09;;;;;;;7.90;1.80;;;19.10;99.90;;;;;;5091195;28;20175;-73
2023/04/03 09:39:56;;;;;;;8.90;1.57;;;19.00;99.90;;;;;;5107483;28;20172;-72
2023/04/03 09:42:25;;;;;;;7.67;2.00;;;18.90;99.90;;;;;;5112024;28;20173;-71
2023/04/03 09:45:04;;;;;;;3.90;1.20;;;18.80;99.90;;;;;;5111830;28;20170;-72
2023/04/03 09:47:34;;;;;;;5.20;1.70;;;18.70;99.90;;;;;;5111794;28;20278;-71
2023/04/03 09:50:14;;;;;;;8.93;1.93;;;18.60;99.90;;;;;;5110580;28;20207;-72
2023/04/03 09:52:44;;;;;;;6.87;1.90;;;18.60;99.90;;;;;;5111561;28;20200;-70
2023/04/03 09:55:17;;;;;;;6.40;1.77;;;18.50;99.90;;;;;;5111554;28;20258;-73
2023/04/03 09:57:48;;;;;;;9.80;2.27;;;18.50;99.90;;;;;;5110868;28;20649;-71
2023/04/03 10:00:25;;;;;;;5.17;1.30;;;18.40;99.90;;;;;;5110122;28;20289;-72
2023/04/03 10:02:56;;;;;;;8.97;2.03;;;18.40;99.90;;;;;;5111471;28;20181;-70
2023/04/03 10:05:40;;;;;;;7.87;2.20;;;18.40;99.90;;;;;;5111127;28;20166;-72
2023/04/03 10:08:17;;;;;;;6.63;1.90;;;18.40;99.90;;;;;;5109918;28;20606;-72
2023/04/03 10:10:47;;;;;;;5.87;1.50;;;18.30;99.90;;;;;;5111494;28;20919;-70
2023/04/03 10:13:24;;;;;;;8.17;1.87;;;18.30;99.90;;;;;;5113634;28;20232;-71
2023/04/03 10:16:17;;;;;;;10.67;2.43;;;18.30;99.90;;;;;;5114947;28;20229;-72
2023/04/03 10:18:56;;;;;;;7.50;1.83;;;18.30;99.90;;;;;;5115022;28;20175;-71
2023/04/03 10:21:30;;;;;;;10.97;1.90;;;18.20;99.90;;;;;;5114684;28;20688;-73
2023/04/03 10:24:07;;;;;;;7.57;1.93;;;18.20;99.90;;;;;;5114568;28;20188;-71
2023/04/03 10:27:11;;;;;;;4.73;1.73;;;18.10;99.90;;;;;;5114871;27;20175;-72
2023/04/03 10:29:55;;;;;;;6.63;2.03;;;18.10;99.90;;;;;;5114526;28;20217;-71
2023/04/03 10:32:52;;;;;;;6.93;1.70;;;18.10;99.90;;;;;;5114903;28;20205;-72
2023/04/03 10:35:39;;;;;;;7.20;2.03;;;18.00;99.90;;;;;;5114250;28;20182;-70
2023/04/03 10:38:07;;;;;;;7.97;1.90;;;17.90;99.90;;;;;;5114697;28;20672;-71
2023/04/03 10:40:40;;;;;;;6.73;1.77;;;17.90;99.90;;;;;;5114558;27;20174;-74
2023/04/03 10:43:48;;;;;;;7.57;1.73;;;17.90;99.90;;;;;;5114351;28;20680;-69
2023/04/03 10:46:30;;;;;;;12.37;1.87;;;17.80;99.90;;;;;;5114547;28;20185;-69
2023/04/03 10:49:03;;;;;;;7.20;1.90;;;17.80;99.90;;;;;;5114135;28;20210;-72
2023/04/03 10:51:38;;;;;;;7.90;2.20;;;17.70;99.90;;;;;;5114424;28;20177;-72
2023/04/03 10:54:11;;;;;;;7.93;2.10;;;17.70;99.90;;;;;;5113996;28;20727;-72
2023/04/03 10:56:39;;;;;;;7.50;2.43;;;17.70;99.90;;;;;;5113947;28;20702;-74
2023/04/03 10:59:18;;;;;;;5.80;1.93;;;17.70;99.90;;;;;;5114316;28;20650;-72
2023/04/03 11:02:11;;;;;;;10.77;2.60;;;17.60;99.90;;;;;;5114160;28;20229;-73
2023/04/03 11:04:41;;;;;;;4.93;2.07;;;17.60;99.90;;;;;;5075451;28;20186;-72
2023/04/03 11:07:39;;;;;;;5.30;2.40;;;17.60;99.90;;;;;;5114127;28;20211;-74
2023/04/03 11:10:36;;;;;;;6.40;2.33;;;17.50;99.90;;;;;;5113504;28;20677;-70
2023/04/03 11:13:10;;;;;;;8.57;2.50;;;17.50;99.90;;;;;;5113569;28;20285;-70
2023/04/03 11:15:38;;;;;;;8.33;2.60;;;17.40;99.90;;;;;;5113625;28;20531;-72
2023/04/03 11:18:11;;;;;;;11.77;2.97;;;17.40;99.90;;;;;;5113824;28;20224;-73
2023/04/03 11:20:42;;;;;;;10.00;3.10;;;17.30;99.90;;;;;;5113548;28;20650;-74
2023/04/03 11:23:34;;;;;;;7.47;2.87;;;17.30;99.90;;;;;;5113373;28;20175;-71
2023/04/03 11:26:14;;;;;;;8.93;2.40;;;17.30;99.90;;;;;;5113648;28;20174;-70
2023/04/03 11:28:42;;;;;;;10.07;2.90;;;17.20;99.90;;;;;;5113774;28;20215;-73
2023/04/03 11:31:40;;;;;;;10.70;3.03;;;17.20;99.90;;;;;;5113672;28;20534;-72
2023/04/03 11:34:27;;;;;;;9.73;2.90;;;17.20;99.90;;;;;;5113143;28;20257;-73
2023/04/03 11:37:00;;;;;;;11.73;3.37;;;17.10;99.90;;;;;;5100019;28;20645;-72
2023/04/03 11:39:31;;;;;;;13.40;3.30;;;17.20;99.90;;;;;;5111868;28;20742;-72
2023/04/03 11:42:18;;;;;;;8.13;3.13;;;17.20;99.90;;;;;;5112821;28;20179;-70
2023/04/03 11:44:45;;;;;;;7.87;2.90;;;17.10;99.90;;;;;;5113098;28;20546;-72
2023/04/03 11:47:33;;;;;;;11.80;3.10;;;17.10;99.90;;;;;;5113227;28;20206;-75
2023/04/03 11:50:02;;;;;;;8.63;2.90;;;17.10;99.90;;;;;;5112739;28;20257;-75
2023/04/03 11:52:42;;;;;;;6.93;2.23;;;17.00;99.90;;;;;;5111627;28;20222;-75
2023/04/03 11:55:22;;;;;;;12.33;2.70;;;17.00;99.90;;;;;;5113315;28;20177;-72
2023/04/03 11:57:58;;;;;;;7.50;2.53;;;17.00;99.90;;;;;;5112271;28;20215;-72
2023/04/03 12:00:46;;;;;;;11.50;2.63;;;16.90;99.90;;;;;;5113252;28;20170;-71
2023/04/03 12:03:31;;;;;;;5.30;2.10;;;16.90;99.90;;;;;;5112475;28;20186;-71
2023/04/03 12:06:27;;;;;;;10.30;2.73;;;16.90;99.90;;;;;;5112613;28;20657;-73
2023/04/03 12:08:56;;;;;;;8.03;3.13;;;16.80;99.90;;;;;;5112855;28;20669;-71
2023/04/03 12:11:41;;;;;;;8.80;3.20;;;16.80;99.90;;;;;;5112497;28;20201;-72
2023/04/03 12:14:16;;;;;;;11.17;2.53;;;16.80;99.90;;;;;;5112835;28;20180;-73
2023/04/03 12:16:47;;;;;;;9.83;2.63;;;16.70;99.90;;;;;;5112759;28;20233;-73
2023/04/03 12:19:40;;;;;;;9.10;2.53;;;16.70;99.90;;;;;;5112418;28;20171;-71
2023/04/03 12:22:13;;;;;;;7.83;2.70;;;16.70;99.90;;;;;;5111246;28;20554;-72
2023/04/03 12:24:48;;;;;;;10.57;2.87;;;16.70;99.90;;;;;;5112685;28;20171;-72
2023/04/03 12:27:28;;;;;;;6.37;2.20;;;16.70;99.90;;;;;;5112135;28;20208;-72
2023/04/03 12:29:59;;;;;;;8.07;2.20;;;16.70;99.90;;;;;;5112341;28;20171;-71
2023/04/03 12:32:42;;;;;;;14.77;3.00;;;16.60;99.90;;;;;;5112206;28;20171;-72
2023/04/03 12:35:27;;;;;;;9.77;2.37;;;16.60;99.90;;;;;;5112003;28;20646;-74
2023/04/03 12:38:20;;;;;;;11.40;2.20;;;16.60;99.90;;;;;;5112455;28;20668;-73
2023/04/03 12:40:52;;;;;;;11.03;2.73;;;16.70;99.90;;;;;;5112188;28;20692;-72
2023/04/03 12:43:29;;;;;;;5.63;2.37;;;16.60;99.90;;;;;;5112540;28;20178;-72
2023/04/03 12:46:04;;;;;;;6.40;2.30;;;16.60;99.90;;;;;;5112318;28;20179;-72
2023/04/03 12:48:54;;;;;;;8.60;2.30;;;16.60;99.90;;;;;;5111396;28;20202;-70
2023/04/03 12:51:43;;;;;;;8.37;2.10;;;16.50;99.90;;;;;;5104902;28;20175;-73
2023/04/03 12:54:42;;;;;;;9.00;2.53;;;16.40;99.90;;;;;;5103825;28;20188;-73
2023/04/03 12:57:14;;;;;;;6.30;2.20;;;16.40;99.90;;;;;;5111331;28;20175;-73
2023/04/03 12:59:43;;;;;;;8.23;2.60;;;16.30;99.90;;;;;;5107863;28;20189;-72
2023/04/03 13:02:30;;;;;;;9.47;2.47;;;16.30;99.90;;;;;;5111722;28;20169;-71
2023/04/03 13:05:09;;;;;;;8.90;2.73;;;16.30;99.90;;;;;;5112165;27;20185;-72
2023/04/03 13:07:40;;;;;;;8.83;2.30;;;16.40;99.90;;;;;;5095126;28;20311;-72
2023/04/03 13:10:07;;;;;;;12.70;2.70;;;16.30;99.90;;;;;;5102510;28;20266;-72